Impacts TAF Board
For situational awareness. Not to be used for flight planning purposes.
IDs:

KDCA - Washington/National, VA, US

Issued at 1134 UTC 21 Feb 2019
Updated at 1327 UTC 21 Feb 2019
Potential Impact None Slight Moderate High
Time<<22/14Z 22/15Z 22/16Z 22/17Z 22/18Z 22/19Z 22/20Z 22/21Z 22/22Z 22/23Z 23/00Z 23/01Z 23/02Z
Type PRVL PRVL PRVL PRVL
VIS >6 >6 >6 >6
CIG 100 100 100 100
Cover OVC OVC OVC OVC
FltCat VFR VFR VFR VFR
WX -- -- -- --
WDir 340 340 340 340
WSpd 5 5 5 5
WGst -- -- -- --
Raw TAF
KDCA 211134Z 2112/2218 20005KT P6SM FEW007 BKN080
  FM211600 28005KT P6SM BKN250
  FM220200 34005KT P6SM OVC100


METAR Board
Radar Display
Forecast Discussion
For situational awareness. Not to be used for flight planning purposes.